Time;durP1;ratioP1;P1;durP2;ratioP2;P2;SDS_P1;SDS_P2;PMS_P1;PMS_P2;Temp;Humidity;BMP_temperature;BMP_pressure;BME280_temperature;BME280_humidity;BME280_pressure;Samples;Min_cycle;Max_cycle;Signal;HPM_P1;HPM_P2
2023/11/27 00:00:58;;;;;;;4.50;3.53;;;;;;;0.17;72.96;99511.84;5117880;27;20243;-66
2023/11/27 00:03:26;;;;;;;6.23;3.30;;;;;;;0.16;72.49;99511.84;5124815;27;20264;-65
2023/11/27 00:05:54;;;;;;;5.47;3.33;;;;;;;0.15;72.15;99525.34;5118750;27;20200;-70
2023/11/27 00:08:21;;;;;;;4.07;3.20;;;;;;;0.09;72.18;99523.50;5126716;27;20277;-61
2023/11/27 00:10:49;;;;;;;4.77;3.50;;;;;;;0.10;72.23;99522.69;5111437;27;20639;-68
2023/11/27 00:13:19;;;;;;;3.70;3.10;;;;;;;0.07;72.16;99519.22;5112441;27;20200;-68
2023/11/27 00:15:48;;;;;;;4.53;3.43;;;;;;;0.06;72.42;99530.19;5125924;27;20242;-63
2023/11/27 00:18:17;;;;;;;5.43;3.60;;;;;;;0.06;73.16;99517.53;5125006;27;20734;-64
2023/11/27 00:20:45;;;;;;;4.43;3.30;;;;;;;0.04;72.81;99531.81;5117454;27;20214;-68
2023/11/27 00:23:13;;;;;;;5.73;3.23;;;;;;;0.05;72.61;99533.53;5114210;27;20196;-65
2023/11/27 00:25:41;;;;;;;5.73;3.47;;;;;;;0.03;73.05;99536.03;5112025;27;20702;-68
2023/11/27 00:28:09;;;;;;;6.03;3.70;;;;;;;-0.01;72.79;99524.97;5118220;27;20200;-64
2023/11/27 00:30:40;;;;;;;8.13;4.43;;;;;;;0.05;72.39;99533.53;5104667;27;20250;-63
2023/11/27 00:33:08;;;;;;;4.40;3.10;;;;;;;-0.01;72.54;99542.69;5112857;27;20569;-66
2023/11/27 00:35:36;;;;;;;4.50;3.40;;;;;;;-0.06;73.05;99536.69;5098443;27;20731;-68
2023/11/27 00:38:04;;;;;;;4.77;3.50;;;;;;;-0.05;73.24;99532.47;5121494;27;20251;-70
2023/11/27 00:40:32;;;;;;;5.70;3.80;;;;;;;-0.01;73.20;99524.13;5115529;27;20211;-67
2023/11/27 00:43:01;;;;;;;5.87;4.00;;;;;;;-0.02;72.93;99527.47;5126933;27;20208;-68
2023/11/27 00:45:31;;;;;;;8.00;4.00;;;;;;;-0.07;72.71;99524.84;5101749;27;20223;-68
2023/11/27 00:48:00;;;;;;;5.00;3.60;;;;;;;-0.05;73.22;99524.88;5108149;27;20200;-68
2023/11/27 00:50:29;;;;;;;6.80;3.90;;;;;;;-0.02;74.12;99519.88;5103096;27;20203;-68
2023/11/27 00:52:56;;;;;;;7.73;4.13;;;;;;;-0.02;73.62;99523.25;5111594;27;20205;-69
2023/11/27 00:55:27;;;;;;;5.70;3.90;;;;;;;0.03;73.36;99519.97;5104220;27;20215;-68
2023/11/27 00:57:57;;;;;;;6.80;4.30;;;;;;;0.08;73.57;99524.34;5114509;27;20199;-67
2023/11/27 01:00:26;;;;;;;7.10;4.07;;;;;;;0.07;73.50;99516.69;5111836;27;20674;-69
2023/11/27 01:02:53;;;;;;;6.83;4.37;;;;;;;0.09;73.57;99520.13;5121178;27;20200;-67
2023/11/27 01:05:24;;;;;;;6.97;4.43;;;;;;;0.08;73.53;99523.50;5118578;27;20199;-69
2023/11/27 01:07:52;;;;;;;5.93;4.13;;;;;;;0.02;73.69;99523.34;5102984;27;20963;-70
2023/11/27 01:10:21;;;;;;;7.30;4.20;;;;;;;-0.04;74.12;99509.72;5106913;27;20207;-71
2023/11/27 01:12:49;;;;;;;7.37;5.03;;;;;;;-0.02;73.79;99518.19;5112145;27;20299;-69
2023/11/27 01:15:19;;;;;;;6.23;4.47;;;;;;;0.00;74.32;99520.78;5114351;27;20238;-68
2023/11/27 01:17:47;;;;;;;7.50;4.57;;;;;;;0.04;73.88;99524.22;5116525;27;20206;-69
2023/11/27 01:20:15;;;;;;;6.70;4.33;;;;;;;0.04;73.90;99519.16;5110177;27;20204;-70
2023/11/27 01:22:44;;;;;;;6.57;4.60;;;;;;;-0.03;74.15;99508.91;5113570;27;20200;-70
2023/11/27 01:25:12;;;;;;;6.27;4.80;;;;;;;-0.05;74.64;99505.47;5108940;27;20685;-69
2023/11/27 01:27:40;;;;;;;6.33;4.50;;;;;;;-0.02;74.46;99508.06;5106547;27;20193;-70
2023/11/27 01:30:09;;;;;;;5.10;3.93;;;;;;;0.02;74.38;99518.28;5113739;27;20225;-71
2023/11/27 01:32:37;;;;;;;6.90;5.00;;;;;;;0.06;74.38;99510.78;5111225;27;20248;-70
2023/11/27 01:35:05;;;;;;;6.67;4.50;;;;;;;0.07;74.34;99504.03;5110334;27;20208;-70
2023/11/27 01:37:34;;;;;;;6.57;4.57;;;;;;;0.09;74.42;99499.88;5113142;27;20686;-69
2023/11/27 01:40:03;;;;;;;7.80;4.37;;;;;;;0.07;74.29;99499.81;5101428;27;20205;-70
2023/11/27 01:42:31;;;;;;;6.07;4.70;;;;;;;0.07;74.44;99498.97;5113485;27;20195;-71
2023/11/27 01:44:59;;;;;;;7.33;4.80;;;;;;;0.08;73.95;99491.41;5106683;27;20199;-70
2023/11/27 01:47:27;;;;;;;6.93;4.50;;;;;;;0.08;74.17;99488.03;5117861;27;20215;-70
2023/11/27 01:49:56;;;;;;;5.40;4.30;;;;;;;0.11;74.56;99498.19;5114339;27;21026;-69
2023/11/27 01:52:25;;;;;;;6.13;3.97;;;;;;;0.11;74.39;99488.06;5111550;28;20204;-72
2023/11/27 01:54:54;;;;;;;7.90;4.63;;;;;;;0.12;74.19;99489.81;5119417;27;20238;-70
2023/11/27 01:57:25;;;;;;;9.30;5.40;;;;;;;0.14;74.50;99491.53;5104626;28;20208;-70
2023/11/27 01:59:56;;;;;;;6.00;4.33;;;;;;;0.15;74.38;99487.34;5113876;27;20281;-66
2023/11/27 02:02:24;;;;;;;6.83;4.60;;;;;;;0.13;74.46;99481.38;5101285;28;20216;-71
2023/11/27 02:04:52;;;;;;;6.13;5.00;;;;;;;0.13;74.81;99478.84;5110368;27;20206;-69
2023/11/27 02:07:20;;;;;;;6.20;5.07;;;;;;;0.12;74.17;99480.53;5111478;28;20634;-68
2023/11/27 02:09:48;;;;;;;6.30;5.03;;;;;;;0.13;74.11;99486.44;5119654;28;20242;-68
2023/11/27 02:12:16;;;;;;;6.97;4.60;;;;;;;0.13;74.21;99482.22;5110232;28;20227;-69
2023/11/27 02:14:46;;;;;;;7.87;5.00;;;;;;;0.13;74.58;99481.38;5107321;28;20236;-69
2023/11/27 02:17:14;;;;;;;6.63;4.53;;;;;;;0.13;74.50;99479.69;5106566;28;20216;-72
2023/11/27 02:19:42;;;;;;;7.63;5.13;;;;;;;0.14;74.83;99475.47;5117812;28;20306;-69
2023/11/27 02:22:10;;;;;;;5.90;4.97;;;;;;;0.15;74.47;99470.47;5105311;28;20211;-67
2023/11/27 02:24:39;;;;;;;6.43;4.67;;;;;;;0.16;74.55;99468.78;5113940;28;20204;-69
2023/11/27 02:27:07;;;;;;;6.73;5.10;;;;;;;0.18;73.94;99464.56;5110006;28;20200;-70
2023/11/27 02:29:34;;;;;;;8.87;5.20;;;;;;;0.12;74.57;99470.38;5116826;28;20231;-68
2023/11/27 02:32:04;;;;;;;8.60;5.00;;;;;;;0.10;73.82;99461.03;5106209;28;20200;-68
2023/11/27 02:34:32;;;;;;;5.93;4.83;;;;;;;0.07;74.00;99455.91;5113675;28;20279;-70
2023/11/27 02:37:00;;;;;;;5.80;4.67;;;;;;;0.06;74.41;99465.19;5112732;28;20228;-70
2023/11/27 02:39:28;;;;;;;7.07;4.77;;;;;;;0.09;74.48;99454.28;5114953;28;20212;-71
2023/11/27 02:41:57;;;;;;;7.63;4.87;;;;;;;0.11;74.53;99466.16;5106797;28;20299;-68
2023/11/27 02:44:25;;;;;;;9.20;5.37;;;;;;;0.11;74.88;99452.59;5115774;27;20559;-69
2023/11/27 02:46:55;;;;;;;10.53;4.67;;;;;;;0.12;74.14;99459.41;5120336;27;20542;-68
2023/11/27 02:49:23;;;;;;;7.50;4.67;;;;;;;0.13;74.47;99456.03;5119076;27;20245;-68
2023/11/27 02:51:51;;;;;;;7.90;4.97;;;;;;;0.09;74.86;99456.81;5108187;27;20203;-69
2023/11/27 02:54:19;;;;;;;6.93;5.43;;;;;;;0.12;74.59;99461.94;5111774;28;20204;-68
2023/11/27 02:56:47;;;;;;;7.60;5.43;;;;;;;0.06;74.86;99457.59;5107722;27;20632;-70
2023/11/27 02:59:18;;;;;;;7.40;5.30;;;;;;;0.11;74.87;99465.28;5121313;27;20410;-67
2023/11/27 03:01:46;;;;;;;8.30;5.53;;;;;;;0.05;74.80;99467.69;5119825;27;20215;-67
2023/11/27 03:04:15;;;;;;;7.70;5.57;;;;;;;0.03;74.69;99459.19;5115030;28;20208;-67
2023/11/27 03:06:43;;;;;;;7.40;5.37;;;;;;;0.02;75.44;99472.69;5118326;27;20651;-68
2023/11/27 03:09:15;;;;;;;7.13;5.63;;;;;;;0.03;75.03;99462.59;5109002;27;20215;-68
2023/11/27 03:11:43;;;;;;;7.47;6.00;;;;;;;-0.05;75.32;99452.28;5119709;27;20204;-68
2023/11/27 03:14:11;;;;;;;6.60;5.33;;;;;;;0.02;74.92;99468.47;5103158;28;20543;-68
2023/11/27 03:16:41;;;;;;;8.10;5.53;;;;;;;0.05;75.10;99462.63;5119286;27;20247;-67
2023/11/27 03:19:09;;;;;;;7.57;5.40;;;;;;;0.05;74.66;99462.63;5119341;27;20216;-68
2023/11/27 03:21:37;;;;;;;8.83;5.30;;;;;;;0.05;75.37;99457.56;5113189;27;20249;-67
2023/11/27 03:24:05;;;;;;;7.17;5.30;;;;;;;0.03;75.61;99460.03;5118755;27;20665;-69
2023/11/27 03:26:34;;;;;;;9.10;5.43;;;;;;;0.03;75.05;99457.50;5122419;27;20643;-68
2023/11/27 03:29:02;;;;;;;7.03;5.53;;;;;;;0.04;75.68;99456.72;5119374;27;20249;-68
2023/11/27 03:31:30;;;;;;;9.17;5.77;;;;;;;0.07;76.05;99455.91;5101200;27;20229;-70
2023/11/27 03:33:59;;;;;;;7.07;5.63;;;;;;;0.12;75.61;99464.47;5110986;27;20205;-68
2023/11/27 03:36:30;;;;;;;10.20;5.53;;;;;;;0.09;75.46;99455.13;5119208;27;20204;-68
2023/11/27 03:38:58;;;;;;;7.53;5.57;;;;;;;0.07;75.47;99450.84;5116879;27;20216;-69
2023/11/27 03:41:26;;;;;;;8.13;5.90;;;;;;;0.01;75.88;99459.19;5108659;27;20203;-69
2023/11/27 03:43:54;;;;;;;8.53;5.97;;;;;;;-0.01;75.53;99458.28;5105605;28;20201;-68
2023/11/27 03:46:22;;;;;;;9.77;6.47;;;;;;;-0.01;76.46;99456.59;5112192;27;20569;-68
2023/11/27 03:48:50;;;;;;;6.77;5.63;;;;;;;-0.02;76.17;99454.88;5109263;27;20655;-67
2023/11/27 03:51:19;;;;;;;9.67;6.37;;;;;;;-0.05;75.93;99449.75;5114144;27;20648;-70
2023/11/27 03:53:47;;;;;;;8.37;6.17;;;;;;;-0.10;75.77;99453.88;5113474;27;20200;-69
2023/11/27 03:56:15;;;;;;;8.43;6.00;;;;;;;-0.08;76.53;99452.22;5108833;27;20674;-68
2023/11/27 03:58:43;;;;;;;9.73;6.93;;;;;;;-0.10;76.59;99458.09;5122552;27;20215;-68
2023/11/27 04:01:13;;;;;;;7.90;6.00;;;;;;;-0.14;76.45;99458.84;5122958;27;20200;-68
2023/11/27 04:03:41;;;;;;;7.27;6.40;;;;;;;-0.13;76.45;99455.50;5111976;27;20208;-67
2023/11/27 04:06:12;;;;;;;9.17;6.40;;;;;;;-0.14;76.38;99452.09;5114945;27;20203;-67
2023/11/27 04:08:41;;;;;;;13.77;7.03;;;;;;;-0.15;76.39;99452.91;5114259;27;20629;-70
2023/11/27 04:11:12;;;;;;;6.80;5.93;;;;;;;-0.13;76.69;99451.28;5103733;27;20673;-68
2023/11/27 04:13:42;;;;;;;10.10;7.27;;;;;;;-0.12;76.29;99454.66;5113784;27;20291;-67
2023/11/27 04:16:10;;;;;;;9.53;6.70;;;;;;;-0.09;76.60;99449.66;5110327;27;20331;-62
2023/11/27 04:18:38;;;;;;;8.83;6.47;;;;;;;-0.14;76.81;99451.25;5117217;27;20289;-63
2023/11/27 04:21:08;;;;;;;9.33;7.47;;;;;;;-0.18;76.58;99459.63;5104931;27;20660;-66
2023/11/27 04:23:36;;;;;;;9.10;7.00;;;;;;;-0.17;77.31;99452.03;5124202;27;20200;-64
2023/11/27 04:26:06;;;;;;;8.67;6.83;;;;;;;-0.17;77.26;99444.44;5124294;27;20235;-64
2023/11/27 04:28:34;;;;;;;12.57;7.73;;;;;;;-0.20;77.61;99443.53;5119799;27;20671;-66
2023/11/27 04:31:02;;;;;;;10.57;7.87;;;;;;;-0.17;77.38;99433.47;5100028;28;20196;-64
2023/11/27 04:33:30;;;;;;;11.00;7.43;;;;;;;-0.14;77.43;99441.97;5125156;27;20568;-64
2023/11/27 04:35:58;;;;;;;9.17;7.13;;;;;;;-0.14;76.97;99431.84;5104914;28;20196;-62
2023/11/27 04:38:27;;;;;;;10.30;7.63;;;;;;;-0.15;76.95;99436.88;5108170;27;20225;-61
2023/11/27 04:40:54;;;;;;;10.03;7.23;;;;;;;-0.21;76.87;99429.16;5114669;27;20200;-61
2023/11/27 04:43:24;;;;;;;8.20;6.43;;;;;;;-0.23;76.65;99433.31;5114011;27;20287;-63
2023/11/27 04:45:52;;;;;;;10.20;7.20;;;;;;;-0.26;76.84;99434.97;5114572;27;20196;-66
2023/11/27 04:48:21;;;;;;;9.27;6.93;;;;;;;-0.30;76.75;99435.72;5107720;27;20682;-62
2023/11/27 04:50:50;;;;;;;8.57;6.60;;;;;;;-0.32;76.95;99437.38;5112216;27;20199;-64
2023/11/27 04:53:17;;;;;;;12.30;7.43;;;;;;;-0.35;76.28;99441.50;5116486;27;20336;-63
2023/11/27 04:55:45;;;;;;;10.77;7.57;;;;;;;-0.37;77.50;99446.53;5110784;27;20241;-62
2023/11/27 04:58:13;;;;;;;10.47;6.87;;;;;;;-0.40;77.00;99436.34;5107057;27;20702;-62
2023/11/27 05:00:43;;;;;;;10.27;7.60;;;;;;;-0.38;77.48;99434.69;5110484;27;20207;-63
2023/11/27 05:03:11;;;;;;;9.53;7.33;;;;;;;-0.39;77.89;99430.47;5121181;27;20198;-64
2023/11/27 05:05:40;;;;;;;10.80;7.73;;;;;;;-0.33;77.56;99438.19;5111768;28;20188;-63
2023/11/27 05:08:08;;;;;;;10.87;7.37;;;;;;;-0.32;76.96;99441.56;5113346;27;20547;-65
2023/11/27 05:10:39;;;;;;;9.70;7.30;;;;;;;-0.28;77.15;99448.41;5113073;27;20199;-68
2023/11/27 05:13:07;;;;;;;13.33;7.50;;;;;;;-0.29;77.57;99444.19;5105788;27;21223;-65
2023/11/27 05:15:35;;;;;;;10.43;7.27;;;;;;;-0.28;76.62;99440.81;5098743;27;20235;-61
2023/11/27 05:18:05;;;;;;;11.47;7.87;;;;;;;-0.29;77.12;99444.19;5114062;27;20235;-64
2023/11/27 05:20:33;;;;;;;12.63;8.37;;;;;;;-0.29;77.20;99451.78;5113790;27;20205;-65
2023/11/27 05:23:01;;;;;;;11.00;7.80;;;;;;;-0.30;77.13;99450.03;5109819;27;20223;-64
2023/11/27 05:25:29;;;;;;;12.93;8.20;;;;;;;-0.30;76.48;99447.50;5120729;27;20196;-64
2023/11/27 05:27:58;;;;;;;11.67;8.07;;;;;;;-0.29;77.50;99447.56;5114586;27;20930;-66
2023/11/27 05:30:26;;;;;;;13.10;7.97;;;;;;;-0.29;77.67;99445.03;5114550;27;20223;-65
2023/11/27 05:32:54;;;;;;;13.00;7.77;;;;;;;-0.29;76.46;99451.78;5112319;27;20261;-65
2023/11/27 05:35:23;;;;;;;12.23;8.13;;;;;;;-0.29;76.99;99457.69;5096084;27;20207;-66
2023/11/27 05:37:51;;;;;;;11.27;8.07;;;;;;;-0.30;77.24;99452.56;5117334;27;20212;-66
2023/11/27 05:40:20;;;;;;;11.03;8.03;;;;;;;-0.29;78.06;99449.25;5108100;27;20207;-66
2023/11/27 05:42:48;;;;;;;10.00;7.60;;;;;;;-0.30;78.08;99453.44;5114898;27;20225;-66
2023/11/27 05:45:17;;;;;;;12.17;8.73;;;;;;;-0.28;77.38;99450.94;5117848;27;20203;-65
2023/11/27 05:47:45;;;;;;;10.80;7.77;;;;;;;-0.27;77.93;99455.19;5127052;27;20199;-65
2023/11/27 05:50:13;;;;;;;12.67;8.90;;;;;;;-0.26;77.46;99459.41;5107653;27;20258;-66
2023/11/27 05:52:43;;;;;;;12.43;9.20;;;;;;;-0.28;77.64;99458.53;5095587;28;20238;-66
2023/11/27 05:55:11;;;;;;;10.87;8.37;;;;;;;-0.33;77.63;99460.09;5113950;27;20200;-66
2023/11/27 05:57:39;;;;;;;11.33;8.33;;;;;;;-0.39;77.14;99454.91;5114810;27;20658;-66
2023/11/27 06:00:08;;;;;;;13.30;9.27;;;;;;;-0.36;78.27;99460.06;5116639;27;20200;-66
2023/11/27 06:02:36;;;;;;;13.03;8.67;;;;;;;-0.36;78.65;99460.91;5110078;27;20658;-66
2023/11/27 06:05:05;;;;;;;12.83;8.60;;;;;;;-0.34;78.20;99466.00;5116177;27;20220;-66
2023/11/27 06:07:34;;;;;;;15.27;9.60;;;;;;;-0.38;77.68;99460.00;5118827;27;20206;-68
2023/11/27 06:10:03;;;;;;;12.00;8.63;;;;;;;-0.38;78.52;99462.53;5117518;27;20204;-66
2023/11/27 06:12:32;;;;;;;13.37;9.27;;;;;;;-0.41;77.87;99457.38;5110093;28;20689;-66
2023/11/27 06:14:59;;;;;;;12.10;8.63;;;;;;;-0.40;78.48;99465.88;5116799;28;20230;-66
2023/11/27 06:17:27;;;;;;;13.57;10.13;;;;;;;-0.40;78.65;99468.41;5112388;27;20555;-67
2023/11/27 06:19:55;;;;;;;12.27;8.67;;;;;;;-0.36;78.84;99472.72;5108458;27;20603;-67
2023/11/27 06:22:25;;;;;;;13.77;9.50;;;;;;;-0.37;77.43;99463.38;5111412;27;20241;-71
2023/11/27 06:24:54;;;;;;;13.57;9.57;;;;;;;-0.38;78.63;99466.75;5118615;27;20215;-66
2023/11/27 06:27:26;;;;;;;14.33;9.00;;;;;;;-0.42;78.07;99468.34;5114000;27;20642;-66
2023/11/27 06:29:54;;;;;;;17.20;10.23;;;;;;;-0.43;78.83;99465.78;5109582;27;20547;-67
2023/11/27 06:32:22;;;;;;;12.23;8.53;;;;;;;-0.45;78.30;99462.34;5109438;28;20192;-66
2023/11/27 06:34:51;;;;;;;15.23;9.53;;;;;;;-0.48;77.95;99468.19;5118140;27;20211;-68
2023/11/27 06:37:19;;;;;;;14.67;9.70;;;;;;;-0.44;78.31;99471.66;5115705;27;20572;-70
2023/11/27 06:39:47;;;;;;;14.73;10.00;;;;;;;-0.40;79.28;99473.47;5110815;27;20744;-67
2023/11/27 06:42:15;;;;;;;13.07;9.90;;;;;;;-0.35;78.29;99471.88;5116340;27;20577;-68
2023/11/27 06:44:45;;;;;;;17.37;10.37;;;;;;;-0.34;78.11;99463.44;5111958;27;20204;-68
2023/11/27 06:47:13;;;;;;;14.37;9.47;;;;;;;-0.38;78.77;99464.22;5116209;27;20662;-68
2023/11/27 06:49:41;;;;;;;13.63;9.53;;;;;;;-0.40;77.83;99469.25;5117266;27;20197;-68
2023/11/27 06:52:09;;;;;;;12.90;9.03;;;;;;;-0.46;77.75;99466.56;5116205;27;20326;-67
2023/11/27 06:54:37;;;;;;;14.70;9.83;;;;;;;-0.45;78.43;99464.88;5113685;27;20200;-69
2023/11/27 06:57:08;;;;;;;14.57;9.57;;;;;;;-0.46;78.56;99469.09;5111866;27;20236;-70
2023/11/27 06:59:36;;;;;;;12.53;9.13;;;;;;;-0.45;78.03;99480.91;5118988;27;20641;-67
2023/11/27 07:02:06;;;;;;;13.27;9.07;;;;;;;-0.42;78.61;99470.03;5108559;27;20717;-67
2023/11/27 07:04:34;;;;;;;13.77;8.47;;;;;;;-0.39;78.45;99478.53;5111880;27;20211;-68
2023/11/27 07:07:03;;;;;;;11.30;8.60;;;;;;;-0.38;77.43;99470.13;5115696;27;20235;-68
2023/11/27 07:09:31;;;;;;;12.27;9.43;;;;;;;-0.40;77.95;99474.31;5120877;27;20207;-67
2023/11/27 07:11:59;;;;;;;12.47;8.13;;;;;;;-0.38;78.50;99481.91;5118388;27;20203;-66
2023/11/27 07:14:27;;;;;;;14.17;9.27;;;;;;;-0.37;78.33;99481.09;5120336;27;20295;-69
2023/11/27 07:16:55;;;;;;;11.50;8.90;;;;;;;-0.37;78.19;99488.69;5117371;27;20192;-66
2023/11/27 07:19:26;;;;;;;11.53;8.63;;;;;;;-0.34;78.54;99489.63;5114089;27;20355;-67
2023/11/27 07:21:55;;;;;;;14.80;8.97;;;;;;;-0.29;77.46;99492.28;5109879;27;20200;-67
2023/11/27 07:24:23;;;;;;;14.33;9.00;;;;;;;-0.28;77.83;99493.97;5103357;27;20208;-67
2023/11/27 07:26:51;;;;;;;13.57;9.27;;;;;;;-0.34;77.50;99486.22;5117767;27;20232;-66
2023/11/27 07:29:19;;;;;;;12.30;9.00;;;;;;;-0.31;78.32;99488.84;5110215;27;20646;-68
2023/11/27 07:31:48;;;;;;;13.23;7.70;;;;;;;-0.33;77.97;99493.00;5110451;27;23540;-69
2023/11/27 07:34:16;;;;;;;11.70;8.20;;;;;;;-0.34;77.98;99481.16;5106286;27;20199;-70
2023/11/27 07:36:45;;;;;;;10.90;8.17;;;;;;;-0.32;77.13;99487.13;5119195;27;20718;-69
2023/11/27 07:39:13;;;;;;;13.73;8.60;;;;;;;-0.32;77.83;99477.88;5117642;27;20915;-67
2023/11/27 07:41:41;;;;;;;12.83;8.60;;;;;;;-0.27;77.38;99480.50;5104858;27;20200;-67
2023/11/27 07:44:09;;;;;;;11.87;8.60;;;;;;;-0.26;77.21;99474.59;5106526;28;20207;-75
2023/11/27 07:46:37;;;;;;;14.07;8.43;;;;;;;-0.24;77.19;99475.50;5113959;27;20204;-70
2023/11/27 07:49:06;;;;;;;11.43;8.57;;;;;;;-0.28;77.12;99468.66;5128998;27;20306;-71
2023/11/27 07:51:34;;;;;;;13.57;8.30;;;;;;;-0.18;76.85;99484.94;5110751;27;20215;-65
2023/11/27 07:54:04;;;;;;;11.73;8.17;;;;;;;-0.15;77.33;99484.97;5109489;28;20211;-64
2023/11/27 07:56:32;;;;;;;12.67;8.03;;;;;;;-0.16;77.18;99483.28;5106613;27;20201;-65
2023/11/27 07:59:01;;;;;;;12.50;8.73;;;;;;;-0.15;77.21;99479.91;5117204;27;20296;-67
2023/11/27 08:01:29;;;;;;;14.37;8.90;;;;;;;-0.06;76.69;99480.13;5114633;27;20200;-66
2023/11/27 08:03:57;;;;;;;11.90;8.20;;;;;;;-0.05;76.43;99477.63;5116235;27;20213;-67
2023/11/27 08:06:26;;;;;;;11.77;8.00;;;;;;;-0.02;76.20;99471.78;5115114;27;20200;-71
2023/11/27 08:08:55;;;;;;;11.27;8.40;;;;;;;-0.01;75.87;99476.00;5121674;27;20708;-71
2023/11/27 08:11:33;;;;;;;13.13;8.13;;;;;;;-0.01;76.84;99474.31;5102761;27;20612;-72
2023/11/27 08:14:01;;;;;;;11.10;8.07;;;;;;;0.05;75.65;99482.88;5112564;27;20676;-73
2023/11/27 08:16:32;;;;;;;12.57;8.40;;;;;;;0.04;75.56;99474.44;5119759;27;20710;-72
2023/11/27 08:19:00;;;;;;;12.50;8.50;;;;;;;0.05;76.25;99482.88;5109398;27;20214;-71
2023/11/27 08:21:28;;;;;;;11.23;7.57;;;;;;;-0.02;75.34;99477.69;5114028;27;20227;-71
2023/11/27 08:23:56;;;;;;;11.90;7.70;;;;;;;-0.07;75.23;99479.28;5114861;27;20207;-71
2023/11/27 08:26:27;;;;;;;12.40;7.97;;;;;;;-0.10;75.46;99469.06;5105036;27;20745;-72
2023/11/27 08:28:56;;;;;;;12.70;8.43;;;;;;;-0.10;75.41;99479.19;5116963;27;20235;-69
2023/11/27 08:31:31;;;;;;;9.07;7.67;;;;;;;-0.09;75.67;99475.00;5107908;27;20207;-64
2023/11/27 08:33:59;;;;;;;11.00;8.13;;;;;;;-0.04;75.98;99479.34;5118960;27;20196;-65
2023/11/27 08:36:27;;;;;;;11.43;7.77;;;;;;;-0.02;75.30;99477.69;5109512;27;20204;-64
2023/11/27 08:38:57;;;;;;;11.33;8.83;;;;;;;-0.02;74.91;99475.16;5113045;27;20202;-63
2023/11/27 08:41:25;;;;;;;12.87;8.63;;;;;;;0.03;74.81;99474.41;5105141;27;20244;-64
2023/11/27 08:43:53;;;;;;;12.03;8.20;;;;;;;0.07;75.19;99474.47;5113869;27;20210;-63
2023/11/27 08:46:25;;;;;;;14.10;8.97;;;;;;;0.07;75.13;99471.94;5114832;27;20213;-64
2023/11/27 08:48:53;;;;;;;12.93;9.03;;;;;;;0.07;74.65;99468.56;5104040;27;20829;-62
2023/11/27 08:51:21;;;;;;;13.60;8.63;;;;;;;0.11;74.23;99475.41;5111503;27;20539;-61
2023/11/27 08:53:50;;;;;;;12.27;8.90;;;;;;;0.09;74.55;99479.59;5116544;27;20580;-65
2023/11/27 08:56:18;;;;;;;13.70;9.20;;;;;;;0.12;74.58;99483.06;5117321;27;20662;-66
2023/11/27 08:58:47;;;;;;;14.30;8.57;;;;;;;0.11;73.90;99477.94;5113972;27;20559;-68
2023/11/27 09:01:16;;;;;;;14.53;9.27;;;;;;;0.07;74.04;99481.22;5111700;27;20234;-68
2023/11/27 09:03:46;;;;;;;14.97;9.70;;;;;;;0.09;74.33;99475.38;5108281;27;20218;-67
2023/11/27 09:06:15;;;;;;;14.70;9.50;;;;;;;0.10;74.26;99469.50;5115899;27;20838;-65
2023/11/27 09:08:43;;;;;;;12.83;8.87;;;;;;;0.11;75.01;99468.69;5107288;28;20285;-69
2023/11/27 09:11:11;;;;;;;12.87;9.30;;;;;;;0.21;75.07;99469.72;5100979;28;20569;-63
2023/11/27 09:13:39;;;;;;;13.67;9.37;;;;;;;0.31;74.35;99456.41;5109730;27;20200;-66
2023/11/27 09:16:10;;;;;;;16.23;9.90;;;;;;;0.37;73.70;99455.66;5105120;27;20645;-70
2023/11/27 09:18:38;;;;;;;18.13;9.13;;;;;;;0.41;73.39;99463.38;5094177;27;20212;-70
2023/11/27 09:21:09;;;;;;;13.83;9.67;;;;;;;0.40;72.91;99458.25;5106471;27;20328;-69
2023/11/27 09:23:37;;;;;;;14.60;9.13;;;;;;;0.44;72.91;99460.03;5104648;27;20683;-69
2023/11/27 09:26:07;;;;;;;13.43;8.80;;;;;;;0.54;73.04;99453.47;5112266;28;20290;-69
2023/11/27 09:28:35;;;;;;;12.90;8.70;;;;;;;0.64;72.62;99447.75;5111353;27;20207;-67
2023/11/27 09:31:03;;;;;;;12.23;8.43;;;;;;;0.68;71.31;99441.91;5112515;28;20977;-69
2023/11/27 09:33:34;;;;;;;11.37;7.90;;;;;;;0.73;71.14;99430.16;5112661;27;20619;-65
2023/11/27 09:36:03;;;;;;;10.83;7.77;;;;;;;0.74;71.08;99434.44;5111749;28;20291;-70
2023/11/27 09:38:33;;;;;;;11.27;7.67;;;;;;;0.79;71.64;99431.97;5112094;28;20211;-67
2023/11/27 09:41:02;;;;;;;13.40;8.10;;;;;;;0.84;70.91;99428.66;5111837;28;20227;-68
2023/11/27 09:43:31;;;;;;;12.63;7.77;;;;;;;0.84;71.01;99435.44;5097867;27;20675;-70
2023/11/27 09:45:59;;;;;;;11.03;7.73;;;;;;;0.84;70.96;99428.66;5101026;28;20631;-64
2023/11/27 09:48:28;;;;;;;11.43;8.47;;;;;;;0.74;71.21;99426.81;5105264;27;20609;-63
2023/11/27 09:50:59;;;;;;;11.80;7.80;;;;;;;0.67;71.01;99425.84;5107014;27;20541;-63
2023/11/27 09:53:34;;;;;;;10.13;7.47;;;;;;;0.65;71.47;99424.09;5102990;27;20649;-66
2023/11/27 09:56:06;;;;;;;11.73;7.70;;;;;;;0.60;71.63;99429.09;5107716;27;20202;-62
2023/11/27 09:58:36;;;;;;;12.77;8.33;;;;;;;0.56;71.56;99429.88;5117459;27;20204;-63
2023/11/27 10:01:07;;;;;;;11.80;7.87;;;;;;;0.56;71.75;99431.56;5115370;27;20230;-65
2023/11/27 10:03:35;;;;;;;12.30;7.97;;;;;;;0.55;71.88;99422.22;5109854;27;20204;-66
2023/11/27 10:06:06;;;;;;;10.30;7.17;;;;;;;0.45;71.67;99426.28;5113168;27;20208;-61
2023/11/27 10:08:35;;;;;;;12.33;8.27;;;;;;;0.37;72.33;99426.13;5121710;27;20204;-60
2023/11/27 10:11:05;;;;;;;10.50;7.80;;;;;;;0.35;73.20;99425.25;5120056;27;20227;-65
2023/11/27 10:13:34;;;;;;;12.93;8.80;;;;;;;0.34;73.00;99425.22;5114180;28;20200;-68
2023/11/27 10:16:24;;;;;;;13.40;8.07;;;;;;;0.33;73.40;99431.09;5098293;28;20658;-64
2023/11/27 10:18:52;;;;;;;11.27;8.73;;;;;;;0.31;73.77;99431.06;5108025;28;20678;-67
2023/11/27 10:21:22;;;;;;;10.87;7.97;;;;;;;0.36;74.00;99429.47;5107687;28;20264;-66
2023/11/27 10:23:51;;;;;;;11.43;8.40;;;;;;;0.34;73.31;99428.59;5112793;28;20579;-65
2023/11/27 10:26:22;;;;;;;11.43;8.73;;;;;;;0.35;73.59;99435.38;5107084;28;20223;-67
2023/11/27 10:28:50;;;;;;;10.87;8.10;;;;;;;0.32;74.30;99432.78;5115777;28;20192;-66
2023/11/27 10:31:19;;;;;;;13.43;9.30;;;;;;;0.15;74.38;99429.06;5110915;28;20665;-68
2023/11/27 10:33:47;;;;;;;14.20;9.87;;;;;;;0.11;74.45;99422.22;5111606;28;20607;-65
2023/11/27 10:36:22;;;;;;;12.50;9.30;;;;;;;-0.05;76.30;99419.38;5112313;28;20610;-65
2023/11/27 10:39:04;;;;;;;14.73;9.93;;;;;;;-0.01;77.01;99423.66;5111154;28;21015;-65
2023/11/27 10:41:34;;;;;;;15.43;9.60;;;;;;;-0.06;77.11;99421.88;5108499;28;20239;-65
2023/11/27 10:44:03;;;;;;;15.80;10.20;;;;;;;0.01;77.54;99420.34;5106525;28;20228;-64
2023/11/27 10:46:35;;;;;;;14.67;10.23;;;;;;;0.02;77.79;99427.97;5120455;27;20719;-67
2023/11/27 10:49:06;;;;;;;15.23;10.17;;;;;;;0.02;77.65;99415.28;5107832;28;20200;-61
2023/11/27 10:51:35;;;;;;;15.60;10.53;;;;;;;0.04;77.58;99416.19;5109438;28;20698;-64
2023/11/27 10:54:03;;;;;;;17.43;11.03;;;;;;;0.08;77.82;99412.91;5116029;28;20203;-68
2023/11/27 10:56:33;;;;;;;15.27;10.63;;;;;;;0.08;78.13;99410.38;5122218;28;20207;-63
2023/11/27 10:59:05;;;;;;;17.77;11.10;;;;;;;0.09;77.81;99396.88;5113125;28;20201;-68
2023/11/27 11:01:39;;;;;;;14.20;9.97;;;;;;;0.14;77.45;99402.00;5109594;28;20245;-66
2023/11/27 11:04:16;;;;;;;15.93;10.77;;;;;;;0.18;78.54;99408.84;5111327;28;20196;-67
2023/11/27 11:06:47;;;;;;;16.50;11.43;;;;;;;0.20;78.60;99400.47;5117544;27;20199;-65
2023/11/27 11:09:16;;;;;;;15.47;11.03;;;;;;;0.20;78.44;99397.94;5120250;27;20211;-65
2023/11/27 11:11:50;;;;;;;17.03;12.43;;;;;;;0.23;78.47;99403.06;5124206;27;20221;-65
2023/11/27 11:14:19;;;;;;;16.00;10.93;;;;;;;0.28;78.05;99408.22;5118422;27;20642;-67
2023/11/27 11:16:56;;;;;;;15.47;11.27;;;;;;;0.24;77.93;99397.16;5118462;27;20208;-69
2023/11/27 11:19:33;;;;;;;16.50;11.03;;;;;;;0.24;78.32;99406.44;5119121;27;20581;-67
2023/11/27 11:22:17;;;;;;;15.53;10.80;;;;;;;0.24;78.60;99398.84;5125337;27;20220;-69
2023/11/27 11:24:52;;;;;;;15.87;11.37;;;;;;;0.27;79.05;99393.00;5123510;27;20206;-68
2023/11/27 11:27:28;;;;;;;16.47;11.23;;;;;;;0.26;79.16;99394.69;5115630;27;20199;-67
2023/11/27 11:29:58;;;;;;;17.10;11.83;;;;;;;0.26;79.38;99401.41;5109304;27;20200;-65
2023/11/27 11:32:28;;;;;;;16.77;11.97;;;;;;;0.23;79.64;99397.16;5113819;27;20239;-67
2023/11/27 11:35:02;;;;;;;16.57;11.37;;;;;;;0.23;79.79;99403.06;5116969;27;20195;-67
2023/11/27 11:37:32;;;;;;;15.30;10.90;;;;;;;0.26;80.06;99404.81;5116721;27;20204;-67
2023/11/27 11:40:04;;;;;;;15.60;11.17;;;;;;;0.27;80.12;99403.97;5121879;27;20202;-68